Terminal Aerodrome Forecast
Issued by NWS Sioux Falls, SD

Home | Current Version | Previous Version | Graphics & Text | Print | Product List | Glossary On
Versions: 1 2 3 4 5 6 7 8 9 10 11 12 13 14 15 16 17 18 19
000
FTUS43 KFSD 242322
TAFFSD
TAF
KFSD 242322Z 2500/2524 21006KT 3SM BR OVC005
     FM250200 19006KT P6SM BKN008
     FM250900 17004KT 2SM BR OVC004
     FM251300 VRB04KT 4SM BR BKN012
     FM252200 04008KT P6SM OVC015=

USA.gov is the U.S. government's official web portal to all federal, state and local government web resources and services.